createdAt,value
2023-09-17T00:01:18.005Z,101579.09
2023-09-17T00:04:08.279Z,101576.72
2023-09-17T00:06:56.301Z,101574.38
2023-09-17T00:09:44.490Z,101581.72
2023-09-17T00:12:32.790Z,101576.44
2023-09-17T00:15:26.864Z,101583.59
2023-09-17T00:18:15.928Z,101577.28
2023-09-17T00:21:06.422Z,101571.00
2023-09-17T00:23:54.599Z,101567.41
2023-09-17T00:26:42.763Z,101567.78
2023-09-17T00:29:30.928Z,101563.53
2023-09-17T00:32:19.090Z,101559.78
2023-09-17T00:35:07.986Z,101549.91
2023-09-17T00:37:56.268Z,101549.06
2023-09-17T00:40:44.493Z,101553.47
2023-09-17T00:43:32.769Z,101547.19
2023-09-17T00:46:21.592Z,101547.38
2023-09-17T00:49:14.825Z,101544.84
2023-09-17T00:52:05.014Z,101539.38
2023-09-17T00:54:54.224Z,101537.69
2023-09-17T00:57:47.177Z,101533.28
2023-09-17T01:00:39.725Z,101524.41
2023-09-17T01:03:09.532Z,101525.28
2023-09-17T01:06:00.294Z,101531.94
2023-09-17T01:08:50.054Z,101518.66
2023-09-17T01:11:38.578Z,101514.41
2023-09-17T01:14:27.819Z,101512.72
2023-09-17T01:17:16.555Z,101506.59
2023-09-17T01:20:25.052Z,101495.88
2023-09-17T01:24:05.762Z,101495.88
2023-09-17T01:27:05.268Z,101496.06
2023-09-17T01:29:54.888Z,101501.53
2023-09-17T01:32:43.924Z,101511.19
2023-09-17T01:35:34.563Z,101507.44
2023-09-17T01:38:32.252Z,101508.97
2023-09-17T01:41:22.125Z,101507.75
2023-09-17T01:44:12.199Z,101493.66
2023-09-17T01:47:04.066Z,101490.22
2023-09-17T01:49:53.375Z,101489.78
2023-09-17T01:52:42.459Z,101474.00
2023-09-17T01:55:30.966Z,101473.50
2023-09-17T01:58:19.497Z,101472.00
2023-09-17T02:01:07.781Z,101471.81
2023-09-17T02:03:56.046Z,101467.00
2023-09-17T02:06:44.199Z,101479.44
2023-09-17T02:09:32.372Z,101479.25
2023-09-17T02:12:20.547Z,101487.88
2023-09-17T02:15:12.503Z,101490.63
2023-09-17T02:18:00.828Z,101490.81
2023-09-17T02:20:49.012Z,101489.13
2023-09-17T02:23:37.302Z,101483.66
2023-09-17T02:26:25.460Z,101475.88
2023-09-17T02:29:13.759Z,101467.00
2023-09-17T02:32:02.102Z,101470.41
2023-09-17T02:34:50.670Z,101486.00
2023-09-17T02:37:39.028Z,101478.28
2023-09-17T02:40:27.164Z,101480.84
2023-09-17T02:43:15.415Z,101485.06
2023-09-17T02:46:05.099Z,101480.66
2023-09-17T02:48:55.743Z,101481.88
2023-09-17T02:51:43.892Z,101490.41
2023-09-17T02:54:32.100Z,101502.38
2023-09-17T02:57:20.466Z,101513.75
2023-09-17T03:00:10.703Z,101504.56
2023-09-17T03:02:58.970Z,101503.72
2023-09-17T03:05:48.443Z,101496.06
2023-09-17T03:08:42.514Z,101495.41
2023-09-17T03:11:31.009Z,101484.06
2023-09-17T03:14:21.927Z,101482.72
2023-09-17T03:17:10.847Z,101477.25
2023-09-17T03:19:58.867Z,101460.91
2023-09-17T03:22:48.329Z,101472.53
2023-09-17T03:25:36.496Z,101468.03
2023-09-17T03:28:05.377Z,101467.75
2023-09-17T03:30:53.682Z,101469.69
2023-09-17T03:33:41.879Z,101463.66
2023-09-17T03:36:30.017Z,101465.13
2023-09-17T03:39:18.325Z,101467.94
2023-09-17T03:42:07.126Z,101459.28
2023-09-17T03:44:55.399Z,101460.84
2023-09-17T03:47:47.186Z,101457.34
2023-09-17T03:50:40.853Z,101458.28
2023-09-17T03:53:31.712Z,101456.63
2023-09-17T03:56:19.893Z,101462.41
2023-09-17T03:59:08.065Z,101452.44
2023-09-17T04:01:55.913Z,101459.91
2023-09-17T04:04:44.144Z,101455.53
2023-09-17T04:07:32.424Z,101456.47
2023-09-17T04:10:21.111Z,101459.03
2023-09-17T04:13:10.912Z,101453.66
2023-09-17T04:15:59.034Z,101446.38
2023-09-17T04:18:46.896Z,101437.06
2023-09-17T04:21:35.158Z,101443.56
2023-09-17T04:24:23.328Z,101434.22
2023-09-17T04:27:11.680Z,101439.00
2023-09-17T04:29:59.964Z,101434.97
2023-09-17T04:32:50.594Z,101433.28
2023-09-17T04:35:38.741Z,101434.63
2023-09-17T04:38:26.517Z,101426.66
2023-09-17T04:41:14.761Z,101424.28
2023-09-17T04:44:08.891Z,101426.34
2023-09-17T04:46:57.403Z,101424.13
2023-09-17T04:49:45.522Z,101429.56
2023-09-17T04:52:33.687Z,101421.78
2023-09-17T04:55:02.800Z,101414.81
2023-09-17T04:57:51.470Z,101416.69
2023-09-17T05:00:39.689Z,101425.69
2023-09-17T05:03:27.579Z,101435.38
2023-09-17T05:06:15.973Z,101427.03
2023-09-17T05:09:04.355Z,101432.97
2023-09-17T05:11:52.577Z,101432.78
2023-09-17T05:14:42.170Z,101434.66
2023-09-17T05:17:29.216Z,101431.09
2023-09-17T05:20:19.759Z,101433.31
2023-09-17T05:22:49.611Z,101427.56
2023-09-17T05:25:37.763Z,101428.56
2023-09-17T05:28:10.728Z,101430.44
2023-09-17T05:30:59.121Z,101427.91
2023-09-17T05:33:47.260Z,101430.63
2023-09-17T05:36:35.434Z,101427.06
2023-09-17T05:39:23.241Z,101431.66
2023-09-17T05:42:11.415Z,101433.53
2023-09-17T05:44:59.818Z,101434.03
2023-09-17T05:47:48.047Z,101427.91
2023-09-17T05:50:35.852Z,101433.50
2023-09-17T05:53:05.116Z,101429.94
2023-09-17T05:55:53.291Z,101436.41
2023-09-17T05:58:41.638Z,101437.25
2023-09-17T06:01:31.519Z,101433.34
2023-09-17T06:04:20.393Z,101435.38
2023-09-17T06:07:08.516Z,101442.50
2023-09-17T06:09:56.439Z,101434.34
2023-09-17T06:12:25.094Z,101437.75
2023-09-17T06:15:13.010Z,101435.03
2023-09-17T06:18:01.409Z,101434.91
2023-09-17T06:20:49.606Z,101430.13
2023-09-17T06:23:38.677Z,101440.47
2023-09-17T06:26:27.107Z,101442.69
2023-09-17T06:29:15.249Z,101435.69
2023-09-17T06:32:03.387Z,101430.91
2023-09-17T06:34:51.675Z,101433.47
2023-09-17T06:37:40.363Z,101438.56
2023-09-17T06:40:28.452Z,101439.03
2023-09-17T06:43:16.699Z,101449.59
2023-09-17T06:46:05.765Z,101444.81
2023-09-17T06:48:55.125Z,101445.47
2023-09-17T06:51:43.377Z,101441.72
2023-09-17T06:54:31.588Z,101439.66
2023-09-17T06:57:19.641Z,101435.94
2023-09-17T07:00:08.942Z,101441.03
2023-09-17T07:02:57.341Z,101443.75
2023-09-17T07:05:45.507Z,101445.63
2023-09-17T07:08:33.475Z,101455.47
2023-09-17T07:11:21.857Z,101452.22
2023-09-17T07:14:12.944Z,101449.31
2023-09-17T07:17:01.113Z,101449.16
2023-09-17T07:19:49.026Z,101456.09
2023-09-17T07:22:37.163Z,101450.47
2023-09-17T07:25:25.063Z,101458.47
2023-09-17T07:28:13.328Z,101465.59
2023-09-17T07:31:01.542Z,101462.22
2023-09-17T07:33:49.818Z,101460.34
2023-09-17T07:36:37.632Z,101461.38
2023-09-17T07:39:25.457Z,101466.13
2023-09-17T07:42:13.708Z,101467.84
2023-09-17T07:45:01.887Z,101463.91
2023-09-17T07:47:49.745Z,101462.03
2023-09-17T07:50:18.247Z,101468.13
2023-09-17T07:53:08.689Z,101466.09
2023-09-17T07:55:57.902Z,101459.81
2023-09-17T07:58:46.007Z,101469.81
2023-09-17T08:01:33.835Z,101464.22
2023-09-17T08:04:02.993Z,101462.34
2023-09-17T08:06:51.336Z,101463.19
2023-09-17T08:09:40.044Z,101460.13
2023-09-17T08:12:28.242Z,101458.56
2023-09-17T08:15:18.482Z,101457.34
2023-09-17T08:18:07.138Z,101448.63
2023-09-17T08:20:55.250Z,101448.13
2023-09-17T08:23:43.110Z,101449.25
2023-09-17T08:26:32.586Z,101438.50
2023-09-17T08:29:22.005Z,101444.28
2023-09-17T08:31:51.632Z,101447.09
2023-09-17T08:34:39.828Z,101448.63
2023-09-17T08:37:08.479Z,101435.69
2023-09-17T08:39:56.992Z,101427.97
2023-09-17T08:42:29.242Z,101425.94
2023-09-17T08:45:18.865Z,101429.72
2023-09-17T08:47:48.503Z,101429.53
2023-09-17T08:50:17.410Z,101428.34
2023-09-17T08:53:12.301Z,101428.25
2023-09-17T08:56:02.606Z,101423.56
2023-09-17T08:59:01.316Z,101426.88
2023-09-17T09:01:52.406Z,101435.00
2023-09-17T09:04:41.625Z,101429.94
2023-09-17T09:07:31.869Z,101428.63
2023-09-17T09:10:22.688Z,101430.31
2023-09-17T09:13:12.240Z,101425.25
2023-09-17T09:16:01.892Z,101426.44
2023-09-17T09:18:30.961Z,101422.59
2023-09-17T09:21:00.153Z,101421.81
2023-09-17T09:23:48.923Z,101429.53
2023-09-17T09:26:41.532Z,101429.72
2023-09-17T09:29:30.232Z,101424.13
2023-09-17T09:32:20.947Z,101415.22
2023-09-17T09:34:50.262Z,101416.09
2023-09-17T09:37:38.728Z,101415.84
2023-09-17T09:40:27.741Z,101414.09
2023-09-17T09:43:33.635Z,101409.16
2023-09-17T09:46:22.037Z,101411.91
2023-09-17T09:49:10.433Z,101412.28
2023-09-17T09:52:01.000Z,101422.75
2023-09-17T09:54:49.320Z,101410.31
2023-09-17T09:57:38.977Z,101418.78
2023-09-17T10:00:30.853Z,101417.56
2023-09-17T10:03:23.626Z,101418.97
2023-09-17T10:06:11.854Z,101403.81
2023-09-17T10:09:04.093Z,101400.94
2023-09-17T10:11:52.695Z,101391.53
2023-09-17T10:14:42.921Z,101391.06
2023-09-17T10:17:35.229Z,101389.16
2023-09-17T10:20:27.260Z,101395.22
2023-09-17T10:23:17.445Z,101389.38
2023-09-17T10:26:08.864Z,101387.56
2023-09-17T10:28:57.462Z,101388.94
2023-09-17T10:31:47.419Z,101383.56
2023-09-17T10:34:38.132Z,101379.88
2023-09-17T10:37:29.576Z,101380.59
2023-09-17T10:40:18.135Z,101374.53
2023-09-17T10:43:11.466Z,101367.22
2023-09-17T10:46:03.080Z,101359.72
2023-09-17T10:48:54.745Z,101360.91
2023-09-17T10:51:45.606Z,101359.25
2023-09-17T10:54:33.895Z,101363.25
2023-09-17T10:57:29.370Z,101358.91
2023-09-17T11:00:23.584Z,101363.97
2023-09-17T11:03:20.149Z,101359.06
2023-09-17T11:05:51.880Z,101358.09
2023-09-17T11:08:40.217Z,101361.66
2023-09-17T11:11:32.676Z,101363.16
2023-09-17T11:14:21.075Z,101370.25
2023-09-17T11:17:11.205Z,101366.91
2023-09-17T11:20:01.038Z,101372.91
2023-09-17T11:22:37.022Z,101363.34
2023-09-17T11:25:40.943Z,101367.13
2023-09-17T11:28:40.163Z,101360.69
2023-09-17T11:31:29.637Z,101361.97
2023-09-17T11:34:00.573Z,101368.38
2023-09-17T11:36:50.068Z,101361.66
2023-09-17T11:39:39.812Z,101353.09
2023-09-17T11:42:28.260Z,101361.78
2023-09-17T11:45:17.021Z,101364.09
2023-09-17T11:48:06.516Z,101363.09
2023-09-17T11:51:14.603Z,101365.50
2023-09-17T11:54:07.848Z,101361.50
2023-09-17T11:56:56.745Z,101361.06
2023-09-17T11:59:44.965Z,101360.16
2023-09-17T12:02:34.142Z,101362.25
2023-09-17T12:05:25.095Z,101364.16
2023-09-17T12:08:14.856Z,101368.81
2023-09-17T12:11:08.455Z,101374.72
2023-09-17T12:13:58.728Z,101378.53
2023-09-17T12:16:53.392Z,101389.25
2023-09-17T12:19:42.883Z,101385.19
2023-09-17T12:22:31.081Z,101380.16
2023-09-17T12:25:20.759Z,101380.56
2023-09-17T12:28:08.948Z,101382.66
2023-09-17T12:30:57.916Z,101377.91
2023-09-17T12:33:46.226Z,101380.00
2023-09-17T12:36:34.553Z,101381.69
2023-09-17T12:39:22.934Z,101375.84
2023-09-17T12:42:11.234Z,101367.25
2023-09-17T12:44:59.492Z,101369.63
2023-09-17T12:47:48.133Z,101367.50
2023-09-17T12:50:20.515Z,101363.75
2023-09-17T12:53:08.914Z,101360.81
2023-09-17T12:56:01.793Z,101360.25
2023-09-17T12:58:53.996Z,101353.13
2023-09-17T13:01:23.423Z,101354.25
2023-09-17T13:04:11.673Z,101353.88
2023-09-17T13:06:59.784Z,101355.38
2023-09-17T13:09:51.113Z,101354.13
2023-09-17T13:12:39.399Z,101340.88
2023-09-17T13:15:27.679Z,101349.94
2023-09-17T13:18:16.335Z,101339.63
2023-09-17T13:21:05.406Z,101337.75
2023-09-17T13:23:53.956Z,101330.78
2023-09-17T13:26:44.573Z,101333.34
2023-09-17T13:29:41.621Z,101323.44
2023-09-17T13:32:30.744Z,101319.44
2023-09-17T13:35:25.700Z,101333.97
2023-09-17T13:38:15.500Z,101331.00
2023-09-17T13:40:56.296Z,101329.13
2023-09-17T13:43:45.594Z,101327.25
2023-09-17T13:46:34.267Z,101333.56
2023-09-17T13:49:22.733Z,101332.50
2023-09-17T13:52:11.469Z,101336.06
2023-09-17T13:54:59.431Z,101338.81
2023-09-17T13:57:47.877Z,101337.81
2023-09-17T14:00:36.202Z,101339.03
2023-09-17T14:03:24.364Z,101340.72
2023-09-17T14:06:12.959Z,101334.38
2023-09-17T14:09:01.568Z,101333.31
2023-09-17T14:11:49.911Z,101329.09
2023-09-17T14:14:38.179Z,101330.41
2023-09-17T14:17:26.907Z,101319.63
2023-09-17T14:20:15.029Z,101313.94
2023-09-17T14:22:44.288Z,101306.34
2023-09-17T14:25:32.880Z,101303.22
2023-09-17T14:28:21.069Z,101296.06
2023-09-17T14:31:09.384Z,101299.44
2023-09-17T14:33:58.306Z,101297.31
2023-09-17T14:36:46.533Z,101304.47
2023-09-17T14:39:34.901Z,101300.06
2023-09-17T14:42:23.277Z,101307.25
2023-09-17T14:45:11.715Z,101304.50
2023-09-17T14:47:59.967Z,101301.97
2023-09-17T14:50:48.111Z,101300.47
2023-09-17T14:53:36.310Z,101295.88
2023-09-17T14:56:24.549Z,101290.81
2023-09-17T14:59:12.815Z,101284.66
2023-09-17T15:02:02.070Z,101274.75
2023-09-17T15:04:50.111Z,101283.38
2023-09-17T15:07:18.856Z,101277.50
2023-09-17T15:10:07.963Z,101280.25
2023-09-17T15:12:56.174Z,101285.91
2023-09-17T15:15:25.323Z,101282.72
2023-09-17T15:18:13.620Z,101281.03
2023-09-17T15:21:04.662Z,101284.19
2023-09-17T15:23:52.843Z,101281.84
2023-09-17T15:26:41.170Z,101281.00
2023-09-17T15:29:12.421Z,101271.91
2023-09-17T15:32:00.657Z,101264.09
2023-09-17T15:34:49.024Z,101257.94
2023-09-17T15:37:18.360Z,101258.78
2023-09-17T15:40:07.408Z,101252.25
2023-09-17T15:42:55.644Z,101251.59
2023-09-17T15:45:43.854Z,101263.00
2023-09-17T15:48:32.316Z,101261.72
2023-09-17T15:51:20.790Z,101251.81
2023-09-17T15:54:09.158Z,101251.19
2023-09-17T15:56:57.393Z,101257.75
2023-09-17T15:59:45.572Z,101261.31
2023-09-17T16:02:34.025Z,101274.75
2023-09-17T16:05:25.136Z,101280.25
2023-09-17T16:08:13.320Z,101286.41
2023-09-17T16:10:42.472Z,101277.13
2023-09-17T16:13:31.198Z,101270.81
2023-09-17T16:16:19.474Z,101269.56
2023-09-17T16:19:07.628Z,101277.19
2023-09-17T16:21:56.752Z,101274.66
2023-09-17T16:24:45.070Z,101274.44
2023-09-17T16:27:33.558Z,101273.22
2023-09-17T16:30:21.827Z,101262.25
2023-09-17T16:33:10.230Z,101267.53
2023-09-17T16:35:58.268Z,101270.69
2023-09-17T16:38:46.474Z,101271.59
2023-09-17T16:41:34.895Z,101272.00
2023-09-17T16:44:23.107Z,101267.78
2023-09-17T16:47:12.640Z,101269.06
2023-09-17T16:50:00.873Z,101270.31
2023-09-17T16:52:49.092Z,101277.28
2023-09-17T16:55:38.722Z,101271.63
2023-09-17T16:58:26.896Z,101256.41
2023-09-17T17:01:15.107Z,101248.81
2023-09-17T17:04:03.971Z,101242.75
2023-09-17T17:06:52.089Z,101235.34
2023-09-17T17:09:40.219Z,101242.94
2023-09-17T17:12:28.488Z,101230.75
2023-09-17T17:15:16.817Z,101232.19
2023-09-17T17:18:05.113Z,101217.69
2023-09-17T17:20:53.359Z,101211.78
2023-09-17T17:23:41.547Z,101208.00
2023-09-17T17:26:29.740Z,101205.81
2023-09-17T17:29:18.463Z,101205.16
2023-09-17T17:32:06.709Z,101196.09
2023-09-17T17:34:54.914Z,101196.66
2023-09-17T17:37:43.426Z,101192.66
2023-09-17T17:40:31.755Z,101183.16
2023-09-17T17:43:20.035Z,101180.78
2023-09-17T17:46:08.752Z,101182.22
2023-09-17T17:48:56.910Z,101180.13
2023-09-17T17:51:45.091Z,101179.66
2023-09-17T17:54:33.829Z,101180.69
2023-09-17T17:57:23.078Z,101171.59
2023-09-17T18:00:12.113Z,101172.63
2023-09-17T18:03:00.449Z,101170.50
2023-09-17T18:05:48.506Z,101182.22
2023-09-17T18:08:36.846Z,101177.56
2023-09-17T18:11:25.102Z,101173.94
2023-09-17T18:14:13.313Z,101175.59
2023-09-17T18:17:01.526Z,101175.53
2023-09-17T18:19:50.335Z,101177.00
2023-09-17T18:22:38.460Z,101179.91
2023-09-17T18:25:27.060Z,101172.97
2023-09-17T18:28:15.316Z,101174.22
2023-09-17T18:30:44.034Z,101186.59
2023-09-17T18:33:34.279Z,101192.22
2023-09-17T18:36:20.548Z,101193.06
2023-09-17T18:39:09.461Z,101191.78
2023-09-17T18:41:57.626Z,101189.25
2023-09-17T18:44:45.909Z,101182.94
2023-09-17T18:47:34.187Z,101190.28
2023-09-17T18:50:22.377Z,101173.06
2023-09-17T18:53:10.600Z,101171.53
2023-09-17T18:55:58.800Z,101159.47
2023-09-17T18:58:47.453Z,101168.44
2023-09-17T19:01:38.369Z,101162.53
2023-09-17T19:04:26.553Z,101154.66
2023-09-17T19:07:14.813Z,101156.47
2023-09-17T19:10:03.129Z,101157.63
2023-09-17T19:12:57.193Z,101156.16
2023-09-17T19:15:47.320Z,101135.50
2023-09-17T19:18:39.018Z,101129.97
2023-09-17T19:21:27.310Z,101136.28
2023-09-17T19:24:16.795Z,101120.75
2023-09-17T19:27:05.222Z,101115.50
2023-09-17T19:29:53.500Z,101115.06
2023-09-17T19:32:41.967Z,101119.00
2023-09-17T19:35:30.188Z,101120.25
2023-09-17T19:38:18.839Z,101122.72
2023-09-17T19:41:08.147Z,101121.16
2023-09-17T19:43:56.583Z,101116.91
2023-09-17T19:46:45.231Z,101113.81
2023-09-17T19:49:33.364Z,101115.09
2023-09-17T19:52:21.524Z,101115.09
2023-09-17T19:55:09.862Z,101130.22
2023-09-17T19:58:00.405Z,101133.63
2023-09-17T20:00:48.913Z,101141.41
2023-09-17T20:03:37.137Z,101127.19
2023-09-17T20:06:29.090Z,101116.97
2023-09-17T20:09:16.541Z,101099.41
2023-09-17T20:12:02.365Z,101085.97
2023-09-17T20:14:50.772Z,101081.50
2023-09-17T20:17:38.971Z,101073.47
2023-09-17T20:20:29.779Z,101062.69
2023-09-17T20:23:18.013Z,101064.50
2023-09-17T20:26:13.824Z,101075.38
2023-09-17T20:29:02.172Z,101077.91
2023-09-17T20:31:54.650Z,101083.84
2023-09-17T20:34:42.711Z,101086.81
2023-09-17T20:37:30.887Z,101081.81
2023-09-17T20:40:19.347Z,101083.13
2023-09-17T20:43:08.762Z,101086.50
2023-09-17T20:45:57.108Z,101075.41
2023-09-17T20:48:45.364Z,101088.19
2023-09-17T20:51:34.024Z,101085.00
2023-09-17T20:54:22.241Z,101074.31
2023-09-17T20:57:10.489Z,101075.16
2023-09-17T20:59:59.349Z,101085.22
2023-09-17T21:02:47.657Z,101089.63
2023-09-17T21:05:35.736Z,101087.53
2023-09-17T21:08:24.806Z,101089.22
2023-09-17T21:11:13.209Z,101081.25
2023-09-17T21:14:01.460Z,101083.84
2023-09-17T21:16:49.632Z,101093.50
2023-09-17T21:19:38.098Z,101097.88
2023-09-17T21:22:26.471Z,101093.47
2023-09-17T21:25:14.663Z,101085.09
2023-09-17T21:28:02.953Z,101078.63
2023-09-17T21:30:51.251Z,101076.72
2023-09-17T21:33:39.573Z,101074.00
2023-09-17T21:36:30.098Z,101071.09
2023-09-17T21:39:18.278Z,101069.59
2023-09-17T21:42:06.355Z,101061.81
2023-09-17T21:44:54.578Z,101060.47
2023-09-17T21:47:42.845Z,101062.47
2023-09-17T21:50:31.077Z,101055.19
2023-09-17T21:53:19.621Z,101045.84
2023-09-17T21:56:09.544Z,101032.72
2023-09-17T21:58:57.675Z,101020.88
2023-09-17T22:01:46.633Z,101005.88
2023-09-17T22:04:15.238Z,100993.69
2023-09-17T22:07:04.465Z,100989.09
2023-09-17T22:09:53.122Z,100986.00
2023-09-17T22:12:41.311Z,100978.69
2023-09-17T22:15:30.040Z,100974.28
2023-09-17T22:18:19.920Z,100967.19
2023-09-17T22:21:11.736Z,100965.59
2023-09-17T22:23:59.913Z,100961.00
2023-09-17T22:26:47.821Z,100961.94
2023-09-17T22:29:36.173Z,100952.41
2023-09-17T22:32:24.432Z,100951.16
2023-09-17T22:35:13.678Z,100945.72
2023-09-17T22:38:02.284Z,100941.69
2023-09-17T22:40:31.254Z,100940.41
2023-09-17T22:43:19.577Z,100942.09
2023-09-17T22:46:07.939Z,100942.94
2023-09-17T22:48:56.273Z,100940.00
2023-09-17T22:51:44.451Z,100931.41
2023-09-17T22:54:32.865Z,100936.84
2023-09-17T22:57:21.199Z,100930.97
2023-09-17T23:00:15.170Z,100924.00
2023-09-17T23:03:04.187Z,100925.22
2023-09-17T23:05:52.398Z,100926.25
2023-09-17T23:08:42.145Z,100916.59
2023-09-17T23:11:30.590Z,100911.16
2023-09-17T23:14:18.850Z,100909.84
2023-09-17T23:17:07.118Z,100906.28
2023-09-17T23:19:55.640Z,100904.22
2023-09-17T23:22:43.708Z,100890.78
2023-09-17T23:25:31.549Z,100884.69
2023-09-17T23:28:00.744Z,100875.06
2023-09-17T23:30:52.155Z,100862.88
2023-09-17T23:33:40.957Z,100850.75
2023-09-17T23:36:29.242Z,100828.16
2023-09-17T23:39:17.422Z,100820.00
2023-09-17T23:42:06.023Z,100809.09
2023-09-17T23:44:54.990Z,100810.59
2023-09-17T23:47:43.396Z,100795.34
2023-09-17T23:50:31.608Z,100787.97
2023-09-17T23:53:20.065Z,100801.16
2023-09-17T23:56:08.166Z,100788.59
2023-09-17T23:58:56.116Z,100786.16
